Terminal Aerodrome Forecast
Issued by NWS

Home | Current Version | Previous Version | Text Only | Print | Product List | Glossary On
Versions: 1 2 3 4 5 6 7 8 9 10 11 12 13 14
688
FTUS43 KICT 220539 AAA
TAFRSL
TAF AMD
KRSL 220539Z 2206/2306 35007KT 4SM -SHRA BR OVC004
     FM220900 36007KT P6SM OVC025
     FM221400 34012KT P6SM OVC100
     FM221900 03012KT P6SM BKN090
     FM230300 05005KT P6SM SCT200=

USA.gov is the U.S. government's official web portal to all federal, state and local government web resources and services.